createdAt,value
2018-11-14T00:01:54.600Z,17.00
2018-11-14T00:04:23.101Z,14.07
2018-11-14T00:06:50.497Z,12.63
2018-11-14T00:09:17.855Z,13.77
2018-11-14T00:11:45.276Z,13.80
2018-11-14T00:14:12.704Z,10.30
2018-11-14T00:16:40.363Z,16.30
2018-11-14T00:19:07.748Z,12.37
2018-11-14T00:21:35.111Z,18.93
2018-11-14T00:24:02.538Z,16.10
2018-11-14T00:26:29.893Z,16.63
2018-11-14T00:28:57.590Z,13.53
2018-11-14T00:31:24.756Z,17.50
2018-11-14T00:33:52.156Z,21.03
2018-11-14T00:36:21.166Z,17.47
2018-11-14T00:38:48.576Z,16.80
2018-11-14T00:41:16.009Z,15.60
2018-11-14T00:43:45.001Z,16.40
2018-11-14T00:46:12.410Z,15.43
2018-11-14T00:48:39.813Z,18.50
2018-11-14T00:51:07.199Z,19.70
2018-11-14T00:53:34.582Z,18.33
2018-11-14T00:56:01.982Z,16.90
2018-11-14T00:58:29.391Z,19.07
2018-11-14T01:00:57.870Z,17.77
2018-11-14T01:03:25.353Z,20.03
2018-11-14T01:05:52.791Z,15.90
2018-11-14T01:08:20.276Z,18.53
2018-11-14T01:10:47.726Z,21.03
2018-11-14T01:13:15.228Z,18.43
2018-11-14T01:15:42.612Z,17.90
2018-11-14T01:18:10.097Z,17.93
2018-11-14T01:20:37.576Z,17.47
2018-11-14T01:23:05.725Z,17.50
2018-11-14T01:25:33.157Z,18.47
2018-11-14T01:28:00.578Z,17.87
2018-11-14T01:30:28.000Z,17.97
2018-11-14T01:32:55.429Z,18.63
2018-11-14T01:35:22.976Z,20.03
2018-11-14T01:37:50.700Z,19.53
2018-11-14T01:40:20.088Z,19.10
2018-11-14T01:42:48.718Z,17.83
2018-11-14T01:45:16.166Z,18.20
2018-11-14T01:47:43.780Z,16.23
2018-11-14T01:50:11.363Z,17.70
2018-11-14T01:52:38.972Z,21.47
2018-11-14T01:55:07.969Z,18.50
2018-11-14T01:57:35.375Z,23.10
2018-11-14T02:00:03.240Z,20.47
2018-11-14T02:02:30.646Z,20.57
2018-11-14T02:04:58.104Z,15.97
2018-11-14T02:07:25.505Z,23.17
2018-11-14T02:09:52.912Z,20.77
2018-11-14T02:12:20.358Z,21.70
2018-11-14T02:14:47.796Z,19.93
2018-11-14T02:17:15.184Z,19.23
2018-11-14T02:19:42.716Z,21.57
2018-11-14T02:22:10.452Z,18.73
2018-11-14T02:24:37.860Z,22.03
2018-11-14T02:27:05.630Z,17.93
2018-11-14T02:29:33.045Z,19.10
2018-11-14T02:32:00.411Z,23.87
2018-11-14T02:34:27.798Z,21.83
2018-11-14T02:36:55.152Z,19.57
2018-11-14T02:39:22.546Z,20.43
2018-11-14T02:41:49.960Z,18.90
2018-11-14T02:44:17.355Z,18.53
2018-11-14T02:46:44.776Z,22.70
2018-11-14T02:49:12.140Z,21.93
2018-11-14T02:51:39.523Z,24.33
2018-11-14T02:54:06.935Z,19.47
2018-11-14T02:56:34.316Z,23.13
2018-11-14T02:59:02.210Z,23.00
2018-11-14T03:01:29.615Z,21.93
2018-11-14T03:03:57.039Z,24.43
2018-11-14T03:06:24.389Z,24.37
2018-11-14T03:08:51.801Z,20.80
2018-11-14T03:11:19.162Z,20.30
2018-11-14T03:13:46.605Z,26.90
2018-11-14T03:16:14.012Z,19.93
2018-11-14T03:18:41.724Z,23.03
2018-11-14T03:21:09.114Z,23.43
2018-11-14T03:23:36.494Z,29.07
2018-11-14T03:26:04.162Z,19.63
2018-11-14T03:28:31.538Z,22.77
2018-11-14T03:30:58.935Z,23.13
2018-11-14T03:33:26.355Z,25.57
2018-11-14T03:35:59.468Z,20.57
2018-11-14T03:38:26.828Z,21.23
2018-11-14T03:40:54.257Z,22.90
2018-11-14T03:43:21.628Z,23.10
2018-11-14T03:45:49.028Z,25.03
2018-11-14T03:48:16.382Z,24.90
2018-11-14T03:50:43.773Z,21.70
2018-11-14T03:53:11.196Z,22.63
2018-11-14T03:55:38.585Z,25.47
2018-11-14T03:58:06.002Z,24.80
2018-11-14T04:00:33.407Z,24.83
2018-11-14T04:03:00.787Z,29.53
2018-11-14T04:05:28.222Z,22.20
2018-11-14T04:07:55.590Z,27.57
2018-11-14T04:10:22.925Z,23.63
2018-11-14T04:12:50.318Z,24.83
2018-11-14T04:17:57.504Z,24.57
2018-11-14T04:20:24.911Z,26.83
2018-11-14T04:22:52.328Z,27.57
2018-11-14T04:25:20.356Z,29.57
2018-11-14T04:27:48.251Z,26.63
2018-11-14T04:30:19.607Z,29.60
2018-11-14T04:32:47.155Z,28.80
2018-11-14T04:35:15.510Z,29.83
2018-11-14T04:37:42.902Z,33.30
2018-11-14T04:40:12.132Z,28.80
2018-11-14T04:42:39.621Z,31.47
2018-11-14T04:45:08.893Z,29.43
2018-11-14T04:47:36.756Z,36.03
2018-11-14T04:50:05.482Z,37.70
2018-11-14T04:52:32.866Z,36.17
2018-11-14T04:55:00.229Z,39.23
2018-11-14T04:57:27.596Z,39.37
2018-11-14T04:59:54.992Z,41.30
2018-11-14T05:02:22.407Z,39.13
2018-11-14T05:04:49.759Z,42.40
2018-11-14T05:07:17.162Z,43.87
2018-11-14T05:09:44.546Z,44.30
2018-11-14T05:12:11.974Z,50.67
2018-11-14T05:14:39.354Z,40.20
2018-11-14T05:17:06.726Z,40.30
2018-11-14T05:19:34.090Z,41.70
2018-11-14T05:22:01.474Z,50.77
2018-11-14T05:24:28.903Z,41.50
2018-11-14T05:26:56.282Z,41.30
2018-11-14T05:29:23.675Z,41.43
2018-11-14T05:31:51.190Z,38.23
2018-11-14T05:34:18.645Z,42.77
2018-11-14T05:36:46.057Z,44.63
2018-11-14T05:39:13.455Z,38.23
2018-11-14T05:41:40.870Z,41.70
2018-11-14T05:44:08.377Z,43.43
2018-11-14T05:46:35.732Z,48.07
2018-11-14T05:49:03.422Z,42.60
2018-11-14T05:51:30.971Z,38.63
2018-11-14T05:53:58.377Z,41.00
2018-11-14T05:56:25.828Z,46.53
2018-11-14T05:58:53.246Z,49.70
2018-11-14T06:01:20.703Z,42.93
2018-11-14T06:03:48.106Z,45.20
2018-11-14T06:06:15.463Z,41.90
2018-11-14T06:08:42.856Z,43.20
2018-11-14T06:11:10.330Z,43.20
2018-11-14T06:13:37.729Z,46.90
2018-11-14T06:16:05.148Z,47.50
2018-11-14T06:18:32.528Z,45.10
2018-11-14T06:20:59.881Z,44.83
2018-11-14T06:23:27.273Z,44.83
2018-11-14T06:25:54.662Z,46.40
2018-11-14T06:28:22.072Z,45.47
2018-11-14T06:30:49.497Z,49.43
2018-11-14T06:33:16.893Z,48.20
2018-11-14T06:35:44.310Z,43.40
2018-11-14T06:38:11.711Z,53.00
2018-11-14T06:40:39.096Z,51.07
2018-11-14T06:43:06.499Z,54.27
2018-11-14T06:45:34.293Z,49.30
2018-11-14T06:48:02.229Z,45.43
2018-11-14T06:50:29.631Z,47.60
2018-11-14T06:53:01.509Z,44.77
2018-11-14T06:55:28.865Z,45.83
2018-11-14T06:57:56.314Z,48.93
2018-11-14T07:00:24.867Z,50.67
2018-11-14T07:02:53.080Z,52.60
2018-11-14T07:05:20.507Z,49.40
2018-11-14T07:07:47.906Z,51.37
2018-11-14T07:10:16.842Z,54.33
2018-11-14T07:12:44.331Z,54.00
2018-11-14T07:15:13.631Z,54.13
2018-11-14T07:17:41.537Z,52.60
2018-11-14T07:20:19.908Z,52.50
2018-11-14T07:22:47.276Z,65.07
2018-11-14T07:25:15.138Z,61.40
2018-11-14T07:27:42.517Z,57.80
2018-11-14T07:30:12.451Z,59.40
2018-11-14T07:32:43.913Z,55.97
2018-11-14T07:35:14.008Z,57.73
2018-11-14T07:37:42.363Z,50.30
2018-11-14T07:40:11.694Z,52.60
2018-11-14T07:42:39.622Z,57.43
2018-11-14T07:45:09.303Z,55.93
2018-11-14T07:47:37.067Z,52.63
2018-11-14T07:50:06.685Z,59.33
2018-11-14T07:52:34.032Z,57.57
2018-11-14T07:55:01.433Z,48.50
2018-11-14T07:57:28.813Z,52.60
2018-11-14T07:59:56.226Z,48.27
2018-11-14T08:02:23.628Z,51.40
2018-11-14T08:04:51.004Z,49.50
2018-11-14T08:07:18.391Z,48.67
2018-11-14T08:09:45.794Z,42.03
2018-11-14T08:12:13.269Z,41.73
2018-11-14T08:14:40.686Z,47.50
2018-11-14T08:17:08.038Z,44.60
2018-11-14T08:19:35.402Z,42.63
2018-11-14T08:22:02.791Z,47.00
2018-11-14T08:24:30.180Z,50.57
2018-11-14T08:26:57.665Z,47.67
2018-11-14T08:29:25.078Z,42.67
2018-11-14T08:31:52.450Z,41.57
2018-11-14T08:34:19.830Z,39.37
2018-11-14T08:36:47.184Z,42.67
2018-11-14T08:39:14.619Z,40.40
2018-11-14T08:41:41.968Z,52.30
2018-11-14T08:44:09.374Z,48.73
2018-11-14T08:46:36.744Z,46.40
2018-11-14T08:49:04.192Z,40.07
2018-11-14T08:51:31.593Z,49.33
2018-11-14T08:53:58.990Z,37.60
2018-11-14T08:56:26.326Z,57.57
2018-11-14T08:58:53.766Z,56.97
2018-11-14T09:01:21.120Z,55.53
2018-11-14T09:03:48.566Z,57.40
2018-11-14T09:06:15.974Z,57.80
2018-11-14T09:08:43.328Z,52.67
2018-11-14T09:11:10.911Z,60.30
2018-11-14T09:13:38.336Z,39.93
2018-11-14T09:16:05.725Z,44.07
2018-11-14T09:18:33.209Z,42.73
2018-11-14T09:21:00.535Z,37.63
2018-11-14T09:23:27.966Z,45.63
2018-11-14T09:25:55.404Z,38.87
2018-11-14T09:28:22.826Z,41.87
2018-11-14T09:30:50.223Z,39.80
2018-11-14T09:33:18.035Z,37.03
2018-11-14T09:35:45.428Z,36.20
2018-11-14T09:38:12.789Z,39.90
2018-11-14T09:40:40.208Z,40.10
2018-11-14T09:43:07.609Z,37.73
2018-11-14T09:45:35.031Z,36.37
2018-11-14T09:48:02.410Z,36.40
2018-11-14T09:50:30.881Z,36.93
2018-11-14T09:52:59.747Z,32.10
2018-11-14T09:55:27.139Z,37.03
2018-11-14T09:57:54.538Z,30.00
2018-11-14T10:00:24.485Z,36.83
2018-11-14T10:02:53.962Z,34.23
2018-11-14T10:05:22.484Z,36.70
2018-11-14T10:07:49.860Z,31.50
2018-11-14T10:10:19.336Z,33.70
2018-11-14T10:12:46.731Z,28.57
2018-11-14T10:15:18.447Z,30.37
2018-11-14T10:17:46.272Z,32.63
2018-11-14T10:20:14.993Z,32.77
2018-11-14T10:22:42.825Z,34.47
2018-11-14T10:25:11.009Z,28.07
2018-11-14T10:27:39.357Z,29.30
2018-11-14T10:30:10.911Z,27.47
2018-11-14T10:32:38.271Z,30.20
2018-11-14T10:35:06.472Z,31.17
2018-11-14T10:37:33.814Z,37.13
2018-11-14T10:40:01.332Z,32.63
2018-11-14T10:42:28.733Z,31.70
2018-11-14T10:44:56.162Z,29.23
2018-11-14T10:47:23.575Z,38.50
2018-11-14T10:49:50.980Z,34.67
2018-11-14T10:52:18.354Z,34.00
2018-11-14T10:54:45.746Z,33.87
2018-11-14T10:57:13.107Z,32.03
2018-11-14T10:59:40.621Z,29.37
2018-11-14T11:02:13.750Z,30.50
2018-11-14T11:04:46.806Z,30.20
2018-11-14T11:07:19.845Z,33.87
2018-11-14T11:09:53.087Z,35.00
2018-11-14T11:12:26.103Z,30.73
2018-11-14T11:14:59.189Z,30.63
2018-11-14T11:17:33.145Z,29.90
2018-11-14T11:20:00.559Z,30.00
2018-11-14T11:22:28.842Z,28.40
2018-11-14T11:24:56.218Z,30.67
2018-11-14T11:27:23.607Z,32.10
2018-11-14T11:29:53.530Z,31.40
2018-11-14T11:32:20.937Z,32.17
2018-11-14T11:34:48.529Z,30.80
2018-11-14T11:37:15.881Z,36.90
2018-11-14T11:39:43.283Z,32.13
2018-11-14T11:42:10.686Z,33.20
2018-11-14T11:44:38.100Z,33.63
2018-11-14T11:47:05.463Z,28.60
2018-11-14T11:49:32.858Z,34.63
2018-11-14T11:52:00.274Z,36.60
2018-11-14T11:54:27.777Z,35.60
2018-11-14T11:56:55.201Z,36.83
2018-11-14T11:59:22.668Z,40.93
2018-11-14T12:01:50.005Z,32.10
2018-11-14T12:04:17.395Z,38.83
2018-11-14T12:06:44.746Z,35.97
2018-11-14T12:09:12.531Z,33.80
2018-11-14T12:11:39.929Z,35.43
2018-11-14T12:14:07.859Z,36.43
2018-11-14T12:16:35.249Z,39.17
2018-11-14T12:19:02.839Z,39.37
2018-11-14T12:21:30.087Z,35.43
2018-11-14T12:23:57.482Z,37.27
2018-11-14T12:26:24.871Z,39.37
2018-11-14T12:28:52.429Z,35.07
2018-11-14T12:31:19.928Z,35.83
2018-11-14T12:33:47.411Z,36.73
2018-11-14T12:36:14.860Z,37.00
2018-11-14T12:38:42.533Z,36.00
2018-11-14T12:41:09.874Z,40.80
2018-11-14T12:43:37.524Z,40.30
2018-11-14T12:46:04.965Z,34.73
2018-11-14T12:48:32.391Z,37.17
2018-11-14T12:50:59.821Z,37.77
2018-11-14T12:53:27.204Z,41.43
2018-11-14T12:55:54.620Z,46.60
2018-11-14T12:58:21.981Z,41.40
2018-11-14T13:00:49.393Z,37.80
2018-11-14T13:03:22.109Z,30.43
2018-11-14T13:05:49.503Z,35.50
2018-11-14T13:08:16.886Z,37.63
2018-11-14T13:10:44.282Z,31.97
2018-11-14T13:13:11.692Z,32.50
2018-11-14T13:15:39.126Z,28.97
2018-11-14T13:18:06.527Z,31.27
2018-11-14T13:20:33.939Z,31.33
2018-11-14T13:23:01.293Z,32.53
2018-11-14T13:25:28.696Z,29.90
2018-11-14T13:27:56.190Z,32.60
2018-11-14T13:30:24.246Z,30.73
2018-11-14T13:32:52.181Z,29.20
2018-11-14T13:35:20.408Z,25.90
2018-11-14T13:37:48.669Z,26.23
2018-11-14T13:40:16.081Z,25.53
2018-11-14T13:42:43.800Z,30.23
2018-11-14T13:45:13.421Z,28.10
2018-11-14T13:47:41.251Z,28.27
2018-11-14T13:50:11.647Z,28.90
2018-11-14T13:52:39.116Z,30.30
2018-11-14T13:55:08.436Z,31.30
2018-11-14T13:57:35.856Z,28.60
2018-11-14T14:00:04.151Z,27.10
2018-11-14T14:02:31.508Z,28.03
2018-11-14T14:04:58.956Z,26.83
2018-11-14T14:07:27.441Z,25.30
2018-11-14T14:09:54.856Z,24.37
2018-11-14T14:12:22.277Z,25.17
2018-11-14T14:14:49.626Z,24.27
2018-11-14T14:17:17.363Z,25.43
2018-11-14T14:19:44.809Z,31.97
2018-11-14T14:22:12.256Z,28.40
2018-11-14T14:24:39.622Z,30.20
2018-11-14T14:27:06.973Z,26.13
2018-11-14T14:29:34.394Z,25.90
2018-11-14T14:32:01.861Z,25.90
2018-11-14T14:34:29.262Z,26.97
2018-11-14T14:36:56.642Z,29.70
2018-11-14T14:39:24.046Z,27.50
2018-11-14T14:41:51.554Z,28.47
2018-11-14T14:44:18.947Z,28.47
2018-11-14T14:46:46.307Z,32.00
2018-11-14T14:49:13.723Z,29.27
2018-11-14T14:51:41.137Z,27.83
2018-11-14T14:54:08.518Z,28.60
2018-11-14T14:56:35.920Z,29.17
2018-11-14T14:59:03.381Z,31.43
2018-11-14T15:01:30.756Z,30.10
2018-11-14T15:03:58.126Z,32.00
2018-11-14T15:06:25.493Z,28.10
2018-11-14T15:08:52.909Z,35.77
2018-11-14T15:11:20.283Z,35.23
2018-11-14T15:13:47.775Z,36.40
2018-11-14T15:16:15.197Z,31.83
2018-11-14T15:18:42.626Z,35.23
2018-11-14T15:21:10.034Z,33.73
2018-11-14T15:23:37.470Z,28.33
2018-11-14T15:26:04.974Z,29.57
2018-11-14T15:28:32.378Z,31.90
2018-11-14T15:30:59.750Z,30.20
2018-11-14T15:33:27.190Z,27.50
2018-11-14T15:35:54.653Z,31.23
2018-11-14T15:38:22.093Z,32.47
2018-11-14T15:40:49.433Z,30.50
2018-11-14T15:43:16.826Z,32.80
2018-11-14T15:45:44.202Z,29.90
2018-11-14T15:48:11.624Z,29.40
2018-11-14T15:50:39.002Z,28.00
2018-11-14T15:53:06.511Z,28.53
2018-11-14T15:55:33.932Z,34.63
2018-11-14T15:58:01.354Z,29.57
2018-11-14T16:00:31.821Z,32.33
2018-11-14T16:02:59.448Z,36.67
2018-11-14T16:05:28.016Z,27.00
2018-11-14T16:07:56.616Z,32.53
2018-11-14T16:10:25.125Z,33.27
2018-11-14T16:12:52.624Z,31.90
2018-11-14T16:15:24.404Z,26.70
2018-11-14T16:17:51.825Z,30.57
2018-11-14T16:20:20.678Z,32.83
2018-11-14T16:22:48.045Z,32.73
2018-11-14T16:25:16.592Z,26.70
2018-11-14T16:27:44.897Z,30.20
2018-11-14T16:30:15.471Z,28.03
2018-11-14T16:32:43.974Z,32.57
2018-11-14T16:35:11.562Z,29.37
2018-11-14T16:37:39.402Z,36.87
2018-11-14T16:40:11.800Z,32.63
2018-11-14T16:42:39.478Z,40.80
2018-11-14T16:45:07.310Z,37.17
2018-11-14T16:47:34.885Z,31.57
2018-11-14T16:50:03.133Z,30.90
2018-11-14T16:52:30.538Z,33.07
2018-11-14T16:54:57.923Z,30.53
2018-11-14T16:57:25.329Z,33.87
2018-11-14T16:59:52.682Z,34.97
2018-11-14T17:02:20.085Z,33.40
2018-11-14T17:04:47.716Z,39.50
2018-11-14T17:07:15.133Z,36.67
2018-11-14T17:09:42.502Z,35.40
2018-11-14T17:12:09.919Z,29.20
2018-11-14T17:14:37.378Z,35.80
2018-11-14T17:17:04.864Z,33.60
2018-11-14T17:19:32.249Z,32.83
2018-11-14T17:21:59.601Z,38.03
2018-11-14T17:24:27.071Z,28.87
2018-11-14T17:26:54.456Z,30.23
2018-11-14T17:29:21.932Z,29.90
2018-11-14T17:31:49.481Z,28.43
2018-11-14T17:34:16.862Z,32.90
2018-11-14T17:36:44.311Z,32.77
2018-11-14T17:39:12.819Z,30.00
2018-11-14T17:41:40.299Z,30.57
2018-11-14T17:44:07.580Z,33.90
2018-11-14T17:46:34.977Z,33.40
2018-11-14T17:49:02.446Z,35.17
2018-11-14T17:51:29.868Z,32.50
2018-11-14T17:53:57.349Z,32.30
2018-11-14T17:56:24.737Z,31.47
2018-11-14T17:58:52.145Z,30.97
2018-11-14T18:01:19.575Z,32.37
2018-11-14T18:03:47.005Z,32.33
2018-11-14T18:06:14.762Z,31.93
2018-11-14T18:08:42.199Z,32.80
2018-11-14T18:11:09.606Z,36.00
2018-11-14T18:13:37.003Z,33.90
2018-11-14T18:16:04.941Z,31.17
2018-11-14T18:18:32.392Z,30.33
2018-11-14T18:20:59.846Z,36.23
2018-11-14T18:23:27.338Z,32.50
2018-11-14T18:25:54.706Z,32.37
2018-11-14T18:28:22.110Z,31.97
2018-11-14T18:30:49.541Z,38.30
2018-11-14T18:33:16.953Z,32.87
2018-11-14T18:35:44.342Z,32.13
2018-11-14T18:38:11.838Z,35.30
2018-11-14T18:40:39.431Z,30.60
2018-11-14T18:43:06.903Z,36.23
2018-11-14T18:45:35.343Z,31.40
2018-11-14T18:48:03.868Z,32.00
2018-11-14T18:50:31.310Z,34.27
2018-11-14T18:52:58.768Z,30.77
2018-11-14T18:55:28.469Z,31.87
2018-11-14T18:57:56.348Z,30.77
2018-11-14T19:00:27.098Z,31.90
2018-11-14T19:02:54.571Z,34.33
2018-11-14T19:05:22.031Z,32.97
2018-11-14T19:07:49.553Z,34.43
2018-11-14T19:10:18.456Z,35.60
2018-11-14T19:12:47.380Z,33.10
2018-11-14T19:15:17.474Z,34.40
2018-11-14T19:17:44.921Z,30.90
2018-11-14T19:20:13.836Z,30.30
2018-11-14T19:22:41.486Z,30.30
2018-11-14T19:25:10.997Z,30.40
2018-11-14T19:27:38.353Z,26.60
2018-11-14T19:30:08.717Z,28.87
2018-11-14T19:32:36.134Z,27.60
2018-11-14T19:35:04.111Z,34.80
2018-11-14T19:37:31.520Z,26.73
2018-11-14T19:39:58.913Z,33.30
2018-11-14T19:42:26.355Z,27.87
2018-11-14T19:44:53.711Z,27.27
2018-11-14T19:47:21.085Z,33.13
2018-11-14T19:49:48.575Z,30.47
2018-11-14T19:52:15.971Z,32.60
2018-11-14T19:54:44.104Z,27.70
2018-11-14T19:57:11.764Z,28.27
2018-11-14T19:59:39.190Z,31.30
2018-11-14T20:02:06.877Z,28.40
2018-11-14T20:04:34.222Z,38.83
2018-11-14T20:07:01.764Z,31.13
2018-11-14T20:09:29.122Z,32.30
2018-11-14T20:11:56.607Z,30.97
2018-11-14T20:14:24.031Z,27.67
2018-11-14T20:16:51.444Z,35.10
2018-11-14T20:19:18.805Z,31.23
2018-11-14T20:21:46.193Z,26.73
2018-11-14T20:24:13.549Z,26.20
2018-11-14T20:26:41.013Z,32.37
2018-11-14T20:29:08.768Z,27.13
2018-11-14T20:31:36.360Z,31.93
2018-11-14T20:34:03.700Z,31.73
2018-11-14T20:36:31.253Z,25.10
2018-11-14T20:39:01.227Z,31.27
2018-11-14T20:41:28.756Z,27.67
2018-11-14T20:43:56.171Z,27.87
2018-11-14T20:46:23.593Z,27.50
2018-11-14T20:48:51.055Z,32.83
2018-11-14T20:51:18.427Z,26.77
2018-11-14T20:53:45.842Z,27.93
2018-11-14T20:56:13.235Z,24.80
2018-11-14T20:58:40.650Z,28.37
2018-11-14T21:01:08.059Z,32.33
2018-11-14T21:03:35.463Z,27.00
2018-11-14T21:06:02.914Z,29.00
2018-11-14T21:08:30.370Z,28.43
2018-11-14T21:10:57.829Z,28.27
2018-11-14T21:13:25.311Z,24.27
2018-11-14T21:15:52.774Z,23.10
2018-11-14T21:18:20.223Z,36.93
2018-11-14T21:20:47.658Z,27.17
2018-11-14T21:23:15.064Z,25.50
2018-11-14T21:25:42.500Z,25.40
2018-11-14T21:28:09.946Z,27.70
2018-11-14T21:30:37.404Z,25.80
2018-11-14T21:33:05.092Z,26.60
2018-11-14T21:35:33.933Z,28.20
2018-11-14T21:38:02.791Z,30.80
2018-11-14T21:40:30.185Z,28.33
2018-11-14T21:42:57.631Z,29.90
2018-11-14T21:45:26.242Z,29.00
2018-11-14T21:47:59.371Z,31.93
2018-11-14T21:50:27.694Z,29.77
2018-11-14T21:52:55.129Z,30.90
2018-11-14T21:55:22.699Z,26.03
2018-11-14T21:57:50.108Z,26.50
2018-11-14T22:00:18.875Z,25.30
2018-11-14T22:02:47.641Z,25.73
2018-11-14T22:05:15.057Z,26.70
2018-11-14T22:07:42.550Z,32.50
2018-11-14T22:10:12.721Z,28.70
2018-11-14T22:12:40.739Z,24.43
2018-11-14T22:15:09.093Z,28.57
2018-11-14T22:17:37.196Z,26.90
2018-11-14T22:20:06.002Z,24.13
2018-11-14T22:22:33.403Z,26.40
2018-11-14T22:25:00.814Z,22.77
2018-11-14T22:27:28.418Z,35.83
2018-11-14T22:29:55.837Z,25.33
2018-11-14T22:32:23.237Z,28.40
2018-11-14T22:34:50.761Z,26.83
2018-11-14T22:37:18.143Z,27.57
2018-11-14T22:39:45.612Z,23.57
2018-11-14T22:42:13.015Z,27.70
2018-11-14T22:44:40.415Z,22.70
2018-11-14T22:47:07.836Z,28.03
2018-11-14T22:49:35.260Z,29.57
2018-11-14T22:52:02.714Z,29.80
2018-11-14T22:54:30.306Z,24.40
2018-11-14T22:56:57.731Z,26.03
2018-11-14T22:59:25.184Z,26.50
2018-11-14T23:01:52.676Z,25.97
2018-11-14T23:04:20.074Z,24.40
2018-11-14T23:06:47.457Z,27.80
2018-11-14T23:09:14.881Z,22.40
2018-11-14T23:11:42.285Z,24.20
2018-11-14T23:14:09.694Z,25.90
2018-11-14T23:16:37.081Z,19.83
2018-11-14T23:19:04.895Z,31.47
2018-11-14T23:21:32.299Z,25.67
2018-11-14T23:23:59.966Z,20.63
2018-11-14T23:26:27.451Z,23.37
2018-11-14T23:28:54.912Z,24.10
2018-11-14T23:31:22.312Z,28.03
2018-11-14T23:33:49.668Z,25.00
2018-11-14T23:36:17.066Z,22.23
2018-11-14T23:38:44.470Z,27.30
2018-11-14T23:41:11.870Z,22.67
2018-11-14T23:43:39.307Z,21.80
2018-11-14T23:46:06.703Z,20.53
2018-11-14T23:48:34.071Z,27.17
2018-11-14T23:51:01.475Z,22.57
2018-11-14T23:53:28.863Z,28.00
2018-11-14T23:55:56.290Z,21.70
2018-11-14T23:58:23.707Z,23.70
